Time;durP1;ratioP1;P1;durP2;ratioP2;P2;SDS_P1;SDS_P2;PMS_P1;PMS_P2;Temp;Humidity;BMP_temperature;BMP_pressure;BME280_temperature;BME280_humidity;BME280_pressure;Samples;Min_cycle;Max_cycle;Signal;HPM_P1;HPM_P2
2022/04/08 00:00:39;;;;;;;;;1.00;0.33;;;;;13.08;45.35;99898.03;2101155;27;47640;-51
2022/04/08 00:01:40;;;;;;;;;1.33;1.00;;;;;13.08;45.43;99890.03;2099763;28;47819;-50
2022/04/08 00:02:41;;;;;;;;;0.75;0.75;;;;;13.08;45.42;99895.38;2102829;27;47666;-47
2022/04/08 00:03:42;;;;;;;;;0.00;0.00;;;;;13.08;45.36;99900.69;2101771;27;47746;-50
2022/04/08 00:04:44;;;;;;;;;0.00;0.00;;;;;13.09;45.33;99896.28;2104251;27;47669;-51
2022/04/08 00:05:44;;;;;;;;;1.00;1.00;;;;;13.09;45.39;99890.94;2091268;28;48091;-52
2022/04/08 00:06:44;;;;;;;;;0.00;0.00;;;;;13.10;45.33;99901.53;2093183;28;49381;-47
2022/04/08 00:07:45;;;;;;;;;0.00;0.00;;;;;13.09;45.52;99897.13;2102506;27;48158;-52
2022/04/08 00:08:46;;;;;;;;;1.67;1.67;;;;;13.09;45.41;99897.13;2103413;27;47774;-50
2022/04/08 00:09:46;;;;;;;;;1.50;1.50;;;;;13.11;45.57;99897.06;2101380;28;47625;-52
2022/04/08 00:10:48;;;;;;;;;1.67;0.67;;;;;13.12;45.43;99893.47;2102541;27;47830;-52
2022/04/08 00:11:49;;;;;;;;;2.00;1.00;;;;;13.10;45.48;99888.22;2101908;27;47834;-49
2022/04/08 00:12:49;;;;;;;;;0.00;0.00;;;;;13.11;45.66;99897.94;2100292;28;48451;-49
2022/04/08 00:13:52;;;;;;;;;1.00;1.00;;;;;13.10;45.57;99888.22;2102172;27;48389;-50
2022/04/08 00:14:52;;;;;;;;;0.00;0.00;;;;;13.09;45.47;99881.16;2102291;28;47850;-49
2022/04/08 00:15:52;;;;;;;;;0.00;0.00;;;;;13.10;45.62;99882.00;2092429;28;48145;-49
2022/04/08 00:16:53;;;;;;;;;0.00;0.00;;;;;13.11;45.48;99889.94;2093527;28;47625;-49
2022/04/08 00:17:53;;;;;;;;;1.00;1.00;;;;;13.11;45.59;99894.41;2108998;27;45750;-50
2022/04/08 00:18:54;;;;;;;;;0.00;0.00;;;;;13.12;45.56;99890.78;2108204;27;47886;-50
2022/04/08 00:19:54;;;;;;;;;0.00;0.00;;;;;13.11;45.45;99889.06;2108773;27;47963;-51
2022/04/08 00:20:54;;;;;;;;;1.00;1.00;;;;;13.12;45.60;99894.31;2105986;27;47845;-48
2022/04/08 00:21:55;;;;;;;;;0.00;0.00;;;;;13.11;45.53;99883.75;2107460;27;47657;-53
2022/04/08 00:22:55;;;;;;;;;1.00;1.00;;;;;13.10;45.53;99888.22;2106276;27;48127;-49
2022/04/08 00:23:56;;;;;;;;;2.33;0.00;;;;;13.10;45.57;99882.00;2108607;27;47465;-51
2022/04/08 00:24:57;;;;;;;;;2.00;0.33;;;;;13.11;45.56;99883.75;2106988;27;47103;-48
2022/04/08 00:25:58;;;;;;;;;0.00;0.00;;;;;13.10;45.51;99871.34;2108926;27;48031;-50
2022/04/08 00:26:58;;;;;;;;;0.00;0.00;;;;;13.09;45.49;99881.16;2108441;27;47345;-53
2022/04/08 00:27:58;;;;;;;;;1.00;1.00;;;;;13.09;45.58;99875.81;2109153;27;47336;-51
2022/04/08 00:28:59;;;;;;;;;2.00;1.00;;;;;13.10;45.59;99876.69;2107614;27;48127;-50
2022/04/08 00:29:59;;;;;;;;;0.00;0.00;;;;;13.10;45.64;99879.34;2110888;27;47967;-51
2022/04/08 00:31:00;;;;;;;;;1.00;1.00;;;;;13.10;45.52;99879.34;2106913;27;47682;-53
2022/04/08 00:32:01;;;;;;;;;0.75;0.00;;;;;13.10;45.49;99882.00;2107505;27;47192;-48
2022/04/08 00:33:01;;;;;;;;;2.00;1.00;;;;;13.10;45.64;99879.34;2107599;27;47494;-52
2022/04/08 00:34:01;;;;;;;;;1.00;1.00;;;;;13.09;45.61;99867.84;2108546;27;47498;-51
2022/04/08 00:35:02;;;;;;;;;1.00;1.00;;;;;13.09;45.75;99872.31;2101156;28;47837;-51
2022/04/08 00:36:03;;;;;;;;;1.00;0.00;;;;;13.10;45.78;99869.56;2090197;28;47632;-48
2022/04/08 00:37:03;;;;;;;;;0.33;0.00;;;;;13.11;45.67;99876.63;2101830;27;47314;-52
2022/04/08 00:38:04;;;;;;;;;1.00;1.00;;;;;13.11;45.89;99884.59;2108312;27;47026;-47
2022/04/08 00:39:05;;;;;;;;;1.00;1.00;;;;;13.12;45.74;99874.81;2100499;27;47501;-49
2022/04/08 00:40:07;;;;;;;;;0.50;0.50;;;;;13.13;45.72;99873.88;2097170;27;47939;-49
2022/04/08 00:41:08;;;;;;;;;1.00;1.00;;;;;13.12;45.78;99873.00;2109584;27;47672;-53
2022/04/08 00:42:12;;;;;;;;;0.00;0.00;;;;;13.12;45.77;99882.81;2108196;27;47474;-49
2022/04/08 00:43:18;;;;;;;;;0.00;0.00;;;;;13.13;46.01;99868.56;2105164;27;47673;-53
2022/04/08 00:44:18;;;;;;;;;0.75;0.75;;;;;13.13;45.94;99871.22;2105612;27;47961;-52
2022/04/08 00:45:19;;;;;;;;;0.67;0.67;;;;;13.15;46.18;99874.66;2107939;27;47676;-49
2022/04/08 00:46:19;;;;;;;;;0.67;0.67;;;;;13.13;46.04;99866.75;2108069;27;47740;-50
2022/04/08 00:47:20;;;;;;;;;1.00;0.00;;;;;13.13;45.91;99871.22;2106967;27;47029;-49
2022/04/08 00:48:20;;;;;;;;;0.00;0.00;;;;;13.14;45.92;99868.47;2100730;28;47928;-49
2022/04/08 00:49:20;;;;;;;;;0.67;0.67;;;;;13.15;46.21;99864.88;2100478;28;47617;-49
2022/04/08 00:50:22;;;;;;;;;1.67;1.67;;;;;13.15;46.01;99861.34;2103429;27;48165;-52
2022/04/08 00:51:23;;;;;;;;;0.00;0.00;;;;;13.15;46.12;99864.00;2099163;27;48407;-52
2022/04/08 00:52:23;;;;;;;;;0.00;0.00;;;;;13.15;46.11;99864.88;2101995;27;47769;-52
2022/04/08 00:53:24;;;;;;;;;0.33;0.33;;;;;13.15;46.13;99854.22;2099266;27;47824;-50
2022/04/08 00:54:25;;;;;;;;;1.25;1.25;;;;;13.16;46.06;99860.41;2103186;27;47698;-52
2022/04/08 00:55:25;;;;;;;;;2.33;1.00;;;;;13.15;45.99;99848.88;2102249;28;47566;-48
2022/04/08 00:56:29;;;;;;;;;0.00;0.00;;;;;13.18;46.23;99850.53;2101575;27;48082;-48
2022/04/08 00:57:31;;;;;;;;;1.00;1.00;;;;;13.18;46.22;99856.75;2085057;28;47794;-51
2022/04/08 00:58:34;;;;;;;;;0.00;0.00;;;;;13.18;46.25;99851.44;2083510;28;47945;-51
2022/04/08 00:59:35;;;;;;;;;1.50;0.00;;;;;13.18;46.33;99855.88;2094291;28;48241;-49
2022/04/08 01:00:38;;;;;;;;;1.00;1.00;;;;;13.17;46.44;99856.81;2093962;28;47068;-49
2022/04/08 01:01:38;;;;;;;;;0.50;0.50;;;;;13.17;46.47;99855.00;2103987;27;47580;-50
2022/04/08 01:02:39;;;;;;;;;0.00;0.00;;;;;13.16;46.61;99855.94;2103634;27;47418;-49
2022/04/08 01:03:39;;;;;;;;;2.00;1.00;;;;;13.15;46.50;99856.03;2091780;28;48002;-47
2022/04/08 01:04:40;;;;;;;;;0.00;0.00;;;;;13.12;46.34;99857.03;2091973;28;48039;-51
2022/04/08 01:05:41;;;;;;;;;1.33;1.00;;;;;13.12;46.63;99859.69;2101549;27;47770;-49
2022/04/08 01:06:43;;;;;;;;;0.25;0.25;;;;;13.11;46.62;99852.63;2101649;28;47630;-53
2022/04/08 01:07:44;;;;;;;;;0.75;0.75;;;;;13.10;46.63;99852.72;2101024;27;47680;-49
2022/04/08 01:08:44;;;;;;;;;0.33;0.33;;;;;13.08;46.56;99849.22;2102719;27;47612;-54
2022/04/08 01:09:45;;;;;;;;;1.00;1.00;;;;;13.09;46.61;99848.31;2098913;28;47829;-50
2022/04/08 01:10:47;;;;;;;;;1.00;1.00;;;;;13.08;46.73;99847.44;2103477;27;47409;-49
2022/04/08 01:11:48;;;;;;;;;0.00;0.00;;;;;13.09;46.61;99849.19;2099885;27;47618;-52
2022/04/08 01:12:49;;;;;;;;;0.00;0.00;;;;;13.09;46.52;99843.88;2102900;27;47845;-50
2022/04/08 01:13:51;;;;;;;;;0.00;0.00;;;;;13.09;46.60;99838.53;2091512;28;47552;-51
2022/04/08 01:14:59;;;;;;;;;1.50;0.00;;;;;13.09;46.75;99841.19;2091556;28;47667;-52
2022/04/08 01:15:59;;;;;;;;;0.00;0.00;;;;;13.09;46.63;99848.31;2100685;27;47480;-50
2022/04/08 01:16:59;;;;;;;;;0.00;0.00;;;;;13.09;46.69;99840.34;2101282;27;47904;-48
2022/04/08 01:18:00;;;;;;;;;1.67;1.67;;;;;13.09;46.76;99843.00;2101377;27;47557;-50
2022/04/08 01:19:00;;;;;;;;;1.00;0.00;;;;;13.09;46.84;99843.88;2103872;27;47109;-52
2022/04/08 01:20:01;;;;;;;;;0.67;0.67;;;;;13.10;46.69;99842.91;2102115;27;47424;-48
2022/04/08 01:21:05;;;;;;;;;1.00;1.00;;;;;13.10;46.68;99842.91;2091446;28;47722;-52
2022/04/08 01:22:05;;;;;;;;;0.50;0.00;;;;;13.12;46.66;99843.72;2093381;28;48191;-52
2022/04/08 01:23:06;;;;;;;;;1.00;1.00;;;;;13.14;46.75;99840.97;2098388;27;47242;-53
2022/04/08 01:24:11;;;;;;;;;3.33;2.00;;;;;13.15;46.79;99848.03;2103393;27;47675;-52
2022/04/08 01:25:13;;;;;;;;;1.75;0.25;;;;;13.15;46.71;99832.91;2104738;27;48316;-51
2022/04/08 01:26:14;;;;;;;;;0.25;0.25;;;;;13.16;46.57;99833.78;2101040;27;50474;-54
2022/04/08 01:27:21;;;;;;;;;1.00;1.00;;;;;13.14;46.64;99833.84;2101998;27;48040;-52
2022/04/08 01:28:25;;;;;;;;;0.25;0.25;;;;;13.14;46.71;99832.97;2102386;27;48538;-47
2022/04/08 01:29:25;;;;;;;;;0.00;0.00;;;;;13.14;46.65;99831.19;2101101;28;47309;-51
2022/04/08 01:30:26;;;;;;;;;0.33;0.33;;;;;13.14;46.70;99825.00;2101027;27;47768;-50
2022/04/08 01:31:29;;;;;;;;;1.67;1.00;;;;;13.14;46.76;99828.50;2097645;27;47714;-46
2022/04/08 01:32:29;;;;;;;;;0.00;0.00;;;;;13.14;46.57;99836.50;2103551;27;47577;-47
2022/04/08 01:33:30;;;;;;;;;1.33;0.33;;;;;13.13;46.67;99834.78;2103296;27;47959;-51
2022/04/08 01:34:30;;;;;;;;;0.67;0.00;;;;;13.13;46.57;99832.13;2101273;27;47527;-48
2022/04/08 01:35:31;;;;;;;;;0.67;0.67;;;;;13.12;46.84;99830.38;2099899;28;48239;-49
2022/04/08 01:36:31;;;;;;;;;0.33;0.33;;;;;13.12;46.67;99837.53;2101248;27;47265;-49
2022/04/08 01:37:31;;;;;;;;;0.00;0.00;;;;;13.12;46.86;99832.19;2099095;28;47452;-51
2022/04/08 01:38:32;;;;;;;;;2.00;1.00;;;;;13.11;46.84;99826.00;2101633;27;47908;-52
2022/04/08 01:39:33;;;;;;;;;3.75;2.00;;;;;13.11;46.66;99826.00;2101176;27;46749;-49
2022/04/08 01:40:33;;;;;;;;;0.33;0.33;;;;;13.11;46.73;99823.34;2099033;27;45692;-52
2022/04/08 01:41:34;;;;;;;;;0.00;0.00;;;;;13.12;46.61;99829.53;2103649;27;47555;-51
2022/04/08 01:42:34;;;;;;;;;0.67;0.00;;;;;13.11;46.66;99819.81;2100496;28;47933;-51
2022/04/08 01:43:34;;;;;;;;;0.00;0.00;;;;;13.11;46.73;99825.13;2104526;27;47519;-52
2022/04/08 01:44:36;;;;;;;;;0.67;0.67;;;;;13.10;46.60;99826.06;2095071;28;47487;-49
2022/04/08 01:45:36;;;;;;;;;0.00;0.00;;;;;13.11;47.06;99826.00;2093794;28;47969;-49
2022/04/08 01:46:36;;;;;;;;;1.00;1.00;;;;;13.12;46.92;99830.38;2100392;27;48246;-49
2022/04/08 01:47:37;;;;;;;;;0.00;0.00;;;;;13.13;46.77;99828.59;2100205;27;47619;-49
2022/04/08 01:48:37;;;;;;;;;0.00;0.00;;;;;13.12;46.70;99825.06;2101154;27;47402;-50
2022/04/08 01:49:38;;;;;;;;;2.67;1.00;;;;;13.14;46.95;99825.00;2101400;27;47848;-48
2022/04/08 01:50:38;;;;;;;;;1.67;0.67;;;;;13.12;46.86;99819.75;2102003;28;47416;-49
2022/04/08 01:51:38;;;;;;;;;1.00;1.00;;;;;13.12;46.84;99822.41;2094250;28;47940;-49
2022/04/08 01:52:39;;;;;;;;;1.00;0.00;;;;;13.13;46.81;99826.78;2095100;28;47499;-50
2022/04/08 01:53:39;;;;;;;;;0.67;0.67;;;;;13.13;46.81;99821.47;2099719;27;47424;-50
2022/04/08 01:54:40;;;;;;;;;2.00;0.00;;;;;13.14;46.85;99822.31;2089410;28;48051;-50
2022/04/08 01:55:41;;;;;;;;;0.00;0.00;;;;;13.14;46.81;99823.19;2094269;28;47467;-49
2022/04/08 01:56:41;;;;;;;;;0.00;0.00;;;;;13.15;46.78;99821.38;2104177;27;47810;-52
2022/04/08 01:57:42;;;;;;;;;0.00;0.00;;;;;13.15;46.83;99814.25;2102054;27;47132;-47
2022/04/08 01:58:42;;;;;;;;;1.00;1.00;;;;;13.16;46.76;99825.78;2101681;27;47554;-48
2022/04/08 01:59:44;;;;;;;;;1.33;0.00;;;;;13.15;46.64;99816.91;2099714;27;47478;-49
2022/04/08 02:00:44;;;;;;;;;1.00;0.00;;;;;13.16;46.87;99817.78;2099065;27;45813;-49
2022/04/08 02:01:44;;;;;;;;;0.00;0.00;;;;;13.16;46.81;99821.31;2075971;28;47623;-49
2022/04/08 02:02:45;;;;;;;;;1.67;0.00;;;;;13.15;46.86;99808.94;2076565;28;47740;-48
2022/04/08 02:03:46;;;;;;;;;1.00;1.00;;;;;13.16;46.89;99815.13;2101801;27;47900;-49
2022/04/08 02:04:47;;;;;;;;;1.25;0.25;;;;;13.16;46.81;99815.97;2100772;27;48143;-51
2022/04/08 02:05:48;;;;;;;;;0.00;0.00;;;;;13.15;46.72;99814.25;2101287;27;47663;-49
2022/04/08 02:06:48;;;;;;;;;2.00;0.00;;;;;13.16;46.81;99817.78;2099756;28;48024;-52
2022/04/08 02:07:48;;;;;;;;;0.00;0.00;;;;;13.15;46.80;99816.91;2103693;27;47559;-47
2022/04/08 02:08:50;;;;;;;;;0.00;0.00;;;;;13.15;46.92;99819.59;2101421;27;47830;-50
2022/04/08 02:09:50;;;;;;;;;0.75;0.75;;;;;13.16;46.97;99815.13;2099505;28;47442;-50
2022/04/08 02:10:53;;;;;;;;;1.00;0.00;;;;;13.15;46.88;99818.72;2098776;27;47954;-49
2022/04/08 02:11:54;;;;;;;;;1.50;1.50;;;;;13.14;46.93;99817.88;2100769;27;47540;-48
2022/04/08 02:12:54;;;;;;;;;0.00;0.00;;;;;13.15;46.88;99816.91;2098696;27;47701;-48
2022/04/08 02:13:55;;;;;;;;;0.00;0.00;;;;;13.15;47.14;99822.25;2101498;27;47389;-50
2022/04/08 02:14:55;;;;;;;;;2.00;2.00;;;;;13.16;47.06;99823.97;2103362;27;47183;-50
2022/04/08 02:15:56;;;;;;;;;1.00;1.00;;;;;13.16;46.84;99817.78;2100788;27;47477;-49
2022/04/08 02:16:56;;;;;;;;;2.00;1.00;;;;;13.16;46.79;99821.31;2104669;27;47809;-50
2022/04/08 02:17:57;;;;;;;;;0.00;0.00;;;;;13.17;46.95;99819.50;2103754;28;47477;-47
2022/04/08 02:18:58;;;;;;;;;0.00;0.00;;;;;13.18;46.93;99816.81;2107686;27;47984;-48
2022/04/08 02:19:58;;;;;;;;;0.75;0.75;;;;;13.19;46.98;99818.53;2105008;27;47343;-48
2022/04/08 02:21:00;;;;;;;;;2.00;1.00;;;;;13.19;46.95;99810.53;2105578;27;48378;-49
2022/04/08 02:22:00;;;;;;;;;0.25;0.25;;;;;13.21;46.76;99815.78;2106817;27;47698;-48
2022/04/08 02:23:03;;;;;;;;;1.00;1.00;;;;;13.21;46.79;99813.13;2103004;27;48063;-48
2022/04/08 02:24:04;;;;;;;;;0.00;0.00;;;;;13.21;46.93;99819.34;2104203;27;47992;-48
2022/04/08 02:25:05;;;;;;;;;1.25;1.00;;;;;13.22;46.96;99814.88;2075542;28;47828;-47
2022/04/08 02:26:06;;;;;;;;;0.25;0.00;;;;;13.22;46.98;99805.09;2077595;28;47950;-48
2022/04/08 02:27:07;;;;;;;;;0.33;0.00;;;;;13.23;46.86;99809.47;2103182;27;47646;-48
2022/04/08 02:28:07;;;;;;;;;1.00;1.00;;;;;13.25;47.15;99807.59;2102716;27;48067;-49
2022/04/08 02:29:07;;;;;;;;;1.00;1.00;;;;;13.25;46.80;99809.41;2104187;28;48025;-49
2022/04/08 02:30:09;;;;;;;;;1.00;1.00;;;;;13.25;46.81;99804.94;2104219;27;47826;-49
2022/04/08 02:31:11;;;;;;;;;0.50;0.50;;;;;13.24;46.84;99811.22;2086539;28;47671;-48
2022/04/08 02:32:11;;;;;;;;;0.00;0.00;;;;;13.24;46.74;99811.22;2085999;28;47837;-49
2022/04/08 02:33:12;;;;;;;;;0.33;0.33;;;;;13.23;46.71;99804.16;2106382;27;47328;-54
2022/04/08 02:34:12;;;;;;;;;0.00;0.00;;;;;13.23;46.84;99805.94;2108947;27;47378;-48
2022/04/08 02:35:13;;;;;;;;;0.00;0.00;;;;;13.21;46.71;99799.81;2105231;27;47401;-50
2022/04/08 02:36:13;;;;;;;;;1.00;1.00;;;;;13.20;46.86;99796.28;2104782;28;47981;-48
2022/04/08 02:37:14;;;;;;;;;0.33;0.33;;;;;13.20;47.08;99795.41;2104814;27;47439;-48
2022/04/08 02:38:14;;;;;;;;;2.00;0.00;;;;;13.20;47.08;99801.59;2103699;27;47253;-48
2022/04/08 02:39:14;;;;;;;;;1.00;0.00;;;;;13.19;46.84;99796.34;2099894;27;47480;-48
2022/04/08 02:40:15;;;;;;;;;0.67;0.00;;;;;13.19;46.85;99799.88;2104714;27;48004;-48
2022/04/08 02:41:15;;;;;;;;;0.33;0.33;;;;;13.21;46.98;99800.69;2102889;27;47106;-50
2022/04/08 02:42:16;;;;;;;;;1.67;1.67;;;;;13.21;47.01;99805.13;2105148;27;47594;-50
2022/04/08 02:43:16;;;;;;;;;0.00;0.00;;;;;13.21;46.91;99803.38;2103276;27;46381;-49
2022/04/08 02:44:16;;;;;;;;;0.00;0.00;;;;;13.21;46.71;99806.03;2094038;28;47398;-53
2022/04/08 02:45:17;;;;;;;;;1.00;1.00;;;;;13.22;47.07;99794.44;2091432;28;47997;-48
2022/04/08 02:46:17;;;;;;;;;0.67;0.67;;;;;13.21;47.02;99800.69;2099710;28;47614;-48
2022/04/08 02:47:18;;;;;;;;;0.00;0.00;;;;;13.20;47.00;99796.28;2101420;27;48090;-49
2022/04/08 02:48:18;;;;;;;;;1.67;1.00;;;;;13.19;47.16;99799.03;2104330;27;47384;-49
2022/04/08 02:49:19;;;;;;;;;0.67;0.00;;;;;13.18;46.93;99795.50;2093317;28;47969;-50
2022/04/08 02:50:19;;;;;;;;;1.67;1.67;;;;;13.17;47.44;99793.72;2094032;28;47545;-48
2022/04/08 02:51:20;;;;;;;;;4.00;1.00;;;;;13.16;46.97;99794.66;2086755;28;47554;-48
2022/04/08 02:52:20;;;;;;;;;0.00;0.00;;;;;13.16;47.22;99791.16;2086512;28;47592;-48
2022/04/08 02:53:20;;;;;;;;;0.67;0.67;;;;;13.17;47.29;99791.06;2106493;27;47984;-48
2022/04/08 02:54:21;;;;;;;;;2.00;1.00;;;;;13.17;47.16;99788.41;2104790;27;47624;-54
2022/04/08 02:55:21;;;;;;;;;0.00;0.00;;;;;13.17;47.24;99783.06;2101843;28;47378;-48
2022/04/08 02:56:22;;;;;;;;;0.00;0.00;;;;;13.17;47.04;99788.41;2103407;27;47848;-50
2022/04/08 02:57:22;;;;;;;;;1.00;0.00;;;;;13.18;47.24;99783.94;2102421;27;47410;-48
2022/04/08 02:58:22;;;;;;;;;0.00;0.00;;;;;13.17;47.21;99783.06;2104189;27;47927;-47
2022/04/08 02:59:23;;;;;;;;;1.00;1.00;;;;;13.18;47.35;99782.16;2103821;27;47505;-49
2022/04/08 03:00:23;;;;;;;;;1.67;0.00;;;;;13.18;47.38;99776.84;2103054;28;48042;-49
2022/04/08 03:01:24;;;;;;;;;2.00;0.00;;;;;13.19;47.33;99767.91;2104740;27;47518;-51
2022/04/08 03:02:24;;;;;;;;;1.00;1.00;;;;;13.19;47.30;99773.25;2104636;27;47471;-49
2022/04/08 03:03:26;;;;;;;;;1.00;1.00;;;;;13.21;47.28;99776.72;2102302;27;47427;-50
2022/04/08 03:04:26;;;;;;;;;0.00;0.00;;;;;13.23;47.25;99779.31;2105591;27;47670;-49
2022/04/08 03:05:27;;;;;;;;;1.00;1.00;;;;;13.23;47.31;99771.31;2104958;27;47435;-49
2022/04/08 03:06:27;;;;;;;;;1.33;0.67;;;;;13.23;47.42;99766.00;2103991;27;48049;-50
2022/04/08 03:07:28;;;;;;;;;0.00;0.00;;;;;13.24;47.30;99759.72;2108799;27;47663;-50
2022/04/08 03:08:29;;;;;;;;;1.00;1.00;;;;;13.25;47.16;99766.78;2103330;27;46722;-48
2022/04/08 03:09:29;;;;;;;;;0.00;0.00;;;;;13.24;47.38;99768.56;2084728;28;47681;-53
2022/04/08 03:10:29;;;;;;;;;1.00;1.00;;;;;13.24;47.39;99760.59;2085348;28;47817;-48
2022/04/08 03:11:30;;;;;;;;;0.67;0.00;;;;;13.25;47.35;99766.78;2103994;28;47625;-49
2022/04/08 03:12:31;;;;;;;;;2.00;0.00;;;;;13.25;47.59;99766.78;2104762;27;47864;-50
2022/04/08 03:13:32;;;;;;;;;1.50;0.00;;;;;13.24;47.39;99765.06;2105051;27;47788;-50
2022/04/08 03:14:32;;;;;;;;;1.00;1.00;;;;;13.24;47.59;99765.06;2103557;27;48062;-52
2022/04/08 03:15:33;;;;;;;;;1.00;1.00;;;;;13.21;47.37;99763.41;2104299;27;48108;-50
2022/04/08 03:16:33;;;;;;;;;1.00;0.00;;;;;13.22;47.29;99764.25;2102706;28;47580;-47
2022/04/08 03:17:37;;;;;;;;;0.00;0.00;;;;;13.21;47.57;99762.50;2096623;28;48006;-47
2022/04/08 03:18:37;;;;;;;;;1.00;1.00;;;;;13.20;47.43;99758.13;2094275;28;48196;-48
2022/04/08 03:19:37;;;;;;;;;2.00;1.00;;;;;13.19;47.55;99764.38;2104272;27;47485;-49
2022/04/08 03:20:38;;;;;;;;;1.00;1.00;;;;;13.18;47.45;99758.19;2103392;27;47981;-50
2022/04/08 03:21:38;;;;;;;;;0.33;0.33;;;;;13.18;47.64;99758.19;2101214;27;47886;-48
2022/04/08 03:22:39;;;;;;;;;1.00;1.00;;;;;13.19;47.55;99757.25;2100762;28;47377;-48
2022/04/08 03:23:39;;;;;;;;;0.67;0.67;;;;;13.18;47.56;99747.53;2104965;27;48365;-49
2022/04/08 03:24:40;;;;;;;;;0.67;0.67;;;;;13.18;47.62;99754.63;2102873;27;47736;-47
2022/04/08 03:25:40;;;;;;;;;2.00;1.67;;;;;13.17;47.72;99763.56;2104360;27;47657;-49
2022/04/08 03:26:41;;;;;;;;;0.00;0.00;;;;;13.16;47.63;99761.84;2103037;27;48063;-47
2022/04/08 03:27:41;;;;;;;;;1.00;1.00;;;;;13.16;47.79;99761.84;2102586;27;47460;-51
2022/04/08 03:28:43;;;;;;;;;1.00;1.00;;;;;13.14;47.58;99747.75;2103214;27;47439;-49
2022/04/08 03:29:44;;;;;;;;;1.00;1.00;;;;;13.14;47.98;99761.06;2103474;27;46017;-51
2022/04/08 03:30:46;;;;;;;;;3.00;1.00;;;;;13.12;47.92;99747.81;2102650;27;47576;-50
2022/04/08 03:31:46;;;;;;;;;0.00;0.00;;;;;13.14;47.98;99755.72;2103086;27;48053;-49
2022/04/08 03:32:46;;;;;;;;;0.00;0.00;;;;;13.14;47.91;99761.06;2103412;27;48209;-48
2022/04/08 03:33:47;;;;;;;;;1.33;0.00;;;;;13.14;47.89;99748.59;2102700;27;47695;-48
2022/04/08 03:34:57;;;;;;;;;0.67;0.67;;;;;13.16;48.06;99745.84;2101478;27;47969;-48
2022/04/08 03:35:57;;;;;;;;;0.00;0.00;;;;;13.16;48.17;99749.38;2101589;27;47783;-51
2022/04/08 03:36:58;;;;;;;;;1.00;1.00;;;;;13.16;48.13;99746.72;2104415;27;47599;-48
2022/04/08 03:37:58;;;;;;;;;2.00;1.00;;;;;13.16;48.20;99746.72;2101847;27;47829;-50
2022/04/08 03:38:59;;;;;;;;;2.33;1.33;;;;;13.17;48.34;99743.13;2099050;27;47488;-49
2022/04/08 03:39:59;;;;;;;;;1.00;1.00;;;;;13.18;48.23;99743.97;2103124;27;47381;-51
2022/04/08 03:41:00;;;;;;;;;2.00;2.00;;;;;13.18;48.14;99754.63;2101706;28;47473;-48
2022/04/08 03:42:00;;;;;;;;;2.33;2.00;;;;;13.18;48.32;99749.31;2103616;27;47408;-49
2022/04/08 03:43:02;;;;;;;;;0.67;0.00;;;;;13.18;48.31;99750.19;2103334;27;47702;-48
2022/04/08 03:44:03;;;;;;;;;0.50;0.50;;;;;13.18;48.52;99741.31;2070336;28;47903;-49
2022/04/08 03:45:04;;;;;;;;;1.67;1.67;;;;;13.17;48.37;99736.94;2085756;28;47570;-52
2022/04/08 03:46:05;;;;;;;;;3.00;2.00;;;;;13.16;48.57;99745.84;2097313;27;49963;-50
2022/04/08 03:47:06;;;;;;;;;4.00;1.67;;;;;13.16;48.59;99743.19;2094053;28;47360;-49
2022/04/08 03:48:08;;;;;;;;;2.25;1.25;;;;;13.16;48.63;99744.06;2093355;28;48437;-47
2022/04/08 03:49:14;;;;;;;;;3.25;2.25;;;;;13.17;48.83;99737.78;2091314;28;47640;-49
2022/04/08 03:50:14;;;;;;;;;1.00;0.75;;;;;13.17;48.86;99737.78;2093034;28;47417;-49
2022/04/08 03:51:14;;;;;;;;;1.00;0.00;;;;;13.16;48.95;99728.06;2093807;28;47530;-49
2022/04/08 03:52:15;;;;;;;;;0.00;0.00;;;;;13.18;49.16;99728.00;2093430;28;47693;-49
2022/04/08 03:53:15;;;;;;;;;1.33;0.33;;;;;13.17;49.25;99718.28;2092660;28;47265;-51
2022/04/08 03:54:18;;;;;;;;;1.00;1.00;;;;;13.17;49.04;99723.59;2092786;28;48172;-51
2022/04/08 03:55:18;;;;;;;;;0.00;0.00;;;;;13.17;49.36;99719.13;2093911;28;47906;-50
2022/04/08 03:56:19;;;;;;;;;0.33;0.33;;;;;13.18;49.57;99715.56;2094373;28;47486;-48
2022/04/08 03:57:19;;;;;;;;;2.00;2.00;;;;;13.17;49.86;99715.63;2086191;28;47556;-49
2022/04/08 03:58:19;;;;;;;;;0.00;0.00;;;;;13.16;49.62;99719.22;2086376;28;47351;-48
2022/04/08 03:59:21;;;;;;;;;1.00;1.00;;;;;13.16;49.78;99714.75;2092108;28;47713;-50
2022/04/08 04:00:22;;;;;;;;;4.00;1.25;;;;;13.15;50.05;99710.38;2091063;28;47543;-48
2022/04/08 04:01:22;;;;;;;;;0.33;0.33;;;;;13.15;50.00;99699.72;2095149;28;47312;-50
2022/04/08 04:02:23;;;;;;;;;1.00;0.67;;;;;13.15;50.06;99690.84;2092469;28;47716;-48
2022/04/08 04:03:23;;;;;;;;;2.33;2.33;;;;;13.17;50.12;99696.97;2092518;28;47693;-48
2022/04/08 04:04:24;;;;;;;;;1.00;1.00;;;;;13.17;50.26;99692.50;2092391;28;47507;-49
2022/04/08 04:05:24;;;;;;;;;1.00;1.00;;;;;13.18;50.36;99688.94;2090466;28;46768;-49
2022/04/08 04:06:24;;;;;;;;;0.33;0.33;;;;;13.19;50.29;99690.66;2090598;28;47478;-48
2022/04/08 04:07:28;;;;;;;;;0.67;0.67;;;;;13.18;49.89;99691.59;2089446;28;48283;-48
2022/04/08 04:08:28;;;;;;;;;2.00;2.00;;;;;13.19;50.37;99690.66;2090801;28;47927;-49
2022/04/08 04:09:29;;;;;;;;;0.67;0.33;;;;;13.17;50.40;99687.16;2083633;28;47969;-51
2022/04/08 04:10:29;;;;;;;;;0.00;0.00;;;;;13.18;50.51;99688.03;2083920;28;47859;-47
2022/04/08 04:11:31;;;;;;;;;0.00;0.00;;;;;13.18;50.62;99691.59;2088156;28;47880;-47
2022/04/08 04:12:33;;;;;;;;;1.00;1.00;;;;;13.18;50.36;99686.25;2094226;28;47717;-50
2022/04/08 04:13:33;;;;;;;;;0.50;0.25;;;;;13.18;50.59;99675.59;2091690;28;47628;-48
2022/04/08 04:14:33;;;;;;;;;1.67;1.33;;;;;13.19;50.72;99674.66;2092343;28;47510;-49
2022/04/08 04:15:34;;;;;;;;;1.33;0.00;;;;;13.20;50.93;99683.53;2093072;28;48437;-50
2022/04/08 04:16:34;;;;;;;;;1.00;1.00;;;;;13.20;50.87;99670.19;2101833;28;47664;-49
2022/04/08 04:17:35;;;;;;;;;0.00;0.00;;;;;13.21;51.04;99671.94;2107879;27;47388;-50
2022/04/08 04:18:36;;;;;;;;;1.25;1.00;;;;;13.19;50.80;99669.34;2110092;27;47707;-52
2022/04/08 04:19:36;;;;;;;;;1.00;1.00;;;;;13.19;51.03;99669.34;2098882;28;47566;-51
2022/04/08 04:20:37;;;;;;;;;1.00;1.00;;;;;13.19;51.15;99663.16;2101834;28;47456;-50
2022/04/08 04:21:37;;;;;;;;;1.33;0.00;;;;;13.18;51.01;99659.63;2100906;28;47866;-50
2022/04/08 04:22:38;;;;;;;;;0.00;0.00;;;;;13.18;51.06;99656.06;2098327;28;47469;-53
2022/04/08 04:23:38;;;;;;;;;1.67;1.67;;;;;13.16;51.22;99650.81;2101386;28;45784;-52
2022/04/08 04:24:38;;;;;;;;;0.00;0.00;;;;;13.17;51.41;99652.53;2101548;27;47331;-48
2022/04/08 04:25:39;;;;;;;;;0.33;0.33;;;;;13.19;51.50;99657.81;2102624;28;48103;-48
2022/04/08 04:26:39;;;;;;;;;0.00;0.00;;;;;13.19;51.46;99641.84;2101013;28;47378;-50
2022/04/08 04:27:40;;;;;;;;;1.00;1.00;;;;;13.20;51.47;99640.91;2100527;28;47397;-52
2022/04/08 04:28:40;;;;;;;;;1.00;1.00;;;;;13.18;51.49;99642.75;2100706;27;47241;-50
2022/04/08 04:29:40;;;;;;;;;2.00;0.33;;;;;13.15;51.41;99641.09;2106218;27;47584;-50
2022/04/08 04:30:41;;;;;;;;;0.33;0.00;;;;;13.15;51.62;99641.09;2103115;28;45775;-49
2022/04/08 04:31:41;;;;;;;;;0.33;0.33;;;;;13.14;51.75;99642.03;2101886;28;47302;-50
2022/04/08 04:32:42;;;;;;;;;0.00;0.00;;;;;13.14;51.59;99642.03;2101072;28;47611;-50
2022/04/08 04:33:42;;;;;;;;;1.33;1.00;;;;;13.15;51.70;99635.78;2097647;28;47018;-47
2022/04/08 04:34:43;;;;;;;;;2.00;2.00;;;;;13.16;51.90;99639.31;2102785;28;47256;-49
2022/04/08 04:35:43;;;;;;;;;1.00;1.00;;;;;13.16;51.96;99637.50;2100135;28;48025;-51
2022/04/08 04:36:43;;;;;;;;;1.00;1.00;;;;;13.17;51.94;99636.56;2102570;28;47582;-49
2022/04/08 04:37:44;;;;;;;;;1.00;1.00;;;;;13.17;51.76;99627.72;2099552;28;47498;-48
2022/04/08 04:38:44;;;;;;;;;4.00;1.00;;;;;13.17;51.91;99622.38;2100655;28;47346;-48
2022/04/08 04:39:45;;;;;;;;;1.67;0.67;;;;;13.16;51.84;99616.19;2101172;28;47644;-48
2022/04/08 04:40:45;;;;;;;;;1.33;1.00;;;;;13.16;52.01;99616.19;2101311;28;47125;-50
2022/04/08 04:41:45;;;;;;;;;1.00;0.67;;;;;13.17;51.92;99609.06;2097047;28;47877;-48
2022/04/08 04:42:46;;;;;;;;;0.00;0.00;;;;;13.17;51.94;99620.56;2101244;28;48159;-49
2022/04/08 04:43:46;;;;;;;;;1.00;1.00;;;;;13.17;51.91;99617.06;2099384;28;47304;-49
2022/04/08 04:44:47;;;;;;;;;1.00;1.00;;;;;13.16;52.15;99612.66;2100755;28;47617;-49
2022/04/08 04:45:47;;;;;;;;;3.00;1.00;;;;;13.14;51.94;99618.06;2100549;28;47672;-48
2022/04/08 04:46:47;;;;;;;;;1.00;1.00;;;;;13.14;51.97;99611.88;2102065;28;47849;-48